sensor_id;sensor_type;location;lat;lon;timestamp;temperature;humidity
22742;DHT22;11538;48.884;8.696;2023-02-05T00:01:38;4.40;99.90
22742;DHT22;11538;48.884;8.696;2023-02-05T00:04:06;4.40;99.90
22742;DHT22;11538;48.884;8.696;2023-02-05T00:06:33;4.50;99.90
22742;DHT22;11538;48.884;8.696;2023-02-05T00:09:01;4.50;99.90
22742;DHT22;11538;48.884;8.696;2023-02-05T00:11:27;4.50;99.90
22742;DHT22;11538;48.884;8.696;2023-02-05T00:13:54;4.50;99.90
22742;DHT22;11538;48.884;8.696;2023-02-05T00:16:22;4.50;99.90
22742;DHT22;11538;48.884;8.696;2023-02-05T00:18:51;4.60;99.90
22742;DHT22;11538;48.884;8.696;2023-02-05T00:21:19;4.60;99.90
22742;DHT22;11538;48.884;8.696;2023-02-05T00:23:47;4.60;99.90
22742;DHT22;11538;48.884;8.696;2023-02-05T00:26:14;4.60;99.90
22742;DHT22;11538;48.884;8.696;2023-02-05T00:28:41;4.60;99.90
22742;DHT22;11538;48.884;8.696;2023-02-05T00:31:09;4.60;99.90
22742;DHT22;11538;48.884;8.696;2023-02-05T00:33:38;4.60;99.90
22742;DHT22;11538;48.884;8.696;2023-02-05T00:36:05;4.60;99.90
22742;DHT22;11538;48.884;8.696;2023-02-05T00:38:33;4.60;99.90
22742;DHT22;11538;48.884;8.696;2023-02-05T00:41:01;4.50;99.90
22742;DHT22;11538;48.884;8.696;2023-02-05T00:43:28;4.50;99.90
22742;DHT22;11538;48.884;8.696;2023-02-05T00:45:56;4.50;99.90
22742;DHT22;11538;48.884;8.696;2023-02-05T00:48:23;4.50;99.90
22742;DHT22;11538;48.884;8.696;2023-02-05T00:50:50;4.50;99.90
22742;DHT22;11538;48.884;8.696;2023-02-05T00:53:18;4.50;99.90
22742;DHT22;11538;48.884;8.696;2023-02-05T00:55:48;4.50;99.90
22742;DHT22;11538;48.884;8.696;2023-02-05T00:58:15;4.50;99.90
22742;DHT22;11538;48.884;8.696;2023-02-05T01:00:43;4.50;99.90
22742;DHT22;11538;48.884;8.696;2023-02-05T01:03:10;4.50;99.90
22742;DHT22;11538;48.884;8.696;2023-02-05T01:05:38;4.50;99.90
22742;DHT22;11538;48.884;8.696;2023-02-05T01:08:06;4.50;99.90
22742;DHT22;11538;48.884;8.696;2023-02-05T01:10:34;4.50;99.90
22742;DHT22;11538;48.884;8.696;2023-02-05T01:13:00;4.50;99.90
22742;DHT22;11538;48.884;8.696;2023-02-05T01:15:29;4.50;99.90
22742;DHT22;11538;48.884;8.696;2023-02-05T01:17:56;4.60;99.90
22742;DHT22;11538;48.884;8.696;2023-02-05T01:20:25;4.60;99.90
22742;DHT22;11538;48.884;8.696;2023-02-05T01:22:52;4.50;99.90
22742;DHT22;11538;48.884;8.696;2023-02-05T01:25:19;4.60;99.90
22742;DHT22;11538;48.884;8.696;2023-02-05T01:27:46;4.50;99.90
22742;DHT22;11538;48.884;8.696;2023-02-05T01:30:13;4.50;99.90
22742;DHT22;11538;48.884;8.696;2023-02-05T01:32:40;4.50;99.90
22742;DHT22;11538;48.884;8.696;2023-02-05T01:35:07;4.50;99.90
22742;DHT22;11538;48.884;8.696;2023-02-05T01:37:35;4.50;99.90
22742;DHT22;11538;48.884;8.696;2023-02-05T01:40:02;4.50;99.90
22742;DHT22;11538;48.884;8.696;2023-02-05T01:42:29;4.50;99.90
22742;DHT22;11538;48.884;8.696;2023-02-05T01:47:54;4.50;99.90
22742;DHT22;11538;48.884;8.696;2023-02-05T01:50:27;4.50;99.90
22742;DHT22;11538;48.884;8.696;2023-02-05T01:52:58;4.40;99.90
22742;DHT22;11538;48.884;8.696;2023-02-05T01:55:28;4.40;99.90
22742;DHT22;11538;48.884;8.696;2023-02-05T01:57:56;4.40;99.90
22742;DHT22;11538;48.884;8.696;2023-02-05T02:00:26;4.40;99.90
22742;DHT22;11538;48.884;8.696;2023-02-05T02:02:53;4.40;99.90
22742;DHT22;11538;48.884;8.696;2023-02-05T02:05:20;4.30;99.90
22742;DHT22;11538;48.884;8.696;2023-02-05T02:07:47;4.30;99.90
22742;DHT22;11538;48.884;8.696;2023-02-05T02:10:15;4.30;99.90
22742;DHT22;11538;48.884;8.696;2023-02-05T02:12:43;4.20;99.90
22742;DHT22;11538;48.884;8.696;2023-02-05T02:15:18;4.20;99.90
22742;DHT22;11538;48.884;8.696;2023-02-05T02:17:50;4.20;99.90
22742;DHT22;11538;48.884;8.696;2023-02-05T02:20:24;4.10;99.90
22742;DHT22;11538;48.884;8.696;2023-02-05T02:23:02;4.10;99.90
22742;DHT22;11538;48.884;8.696;2023-02-05T02:25:59;4.10;99.90
22742;DHT22;11538;48.884;8.696;2023-02-05T02:28:33;4.00;99.90
22742;DHT22;11538;48.884;8.696;2023-02-05T02:31:13;4.00;99.90
22742;DHT22;11538;48.884;8.696;2023-02-05T02:36:19;4.10;99.90
22742;DHT22;11538;48.884;8.696;2023-02-05T02:44:18;4.00;99.90
22742;DHT22;11538;48.884;8.696;2023-02-05T02:46:56;4.00;99.90
22742;DHT22;11538;48.884;8.696;2023-02-05T02:49:27;3.90;99.90
22742;DHT22;11538;48.884;8.696;2023-02-05T02:51:59;3.90;99.90
22742;DHT22;11538;48.884;8.696;2023-02-05T02:54:29;3.90;99.90
22742;DHT22;11538;48.884;8.696;2023-02-05T02:56:59;3.90;99.90
22742;DHT22;11538;48.884;8.696;2023-02-05T02:59:30;3.90;99.90
22742;DHT22;11538;48.884;8.696;2023-02-05T03:02:02;3.90;99.90
22742;DHT22;11538;48.884;8.696;2023-02-05T03:04:38;3.80;99.90
22742;DHT22;11538;48.884;8.696;2023-02-05T03:07:16;3.80;99.90
22742;DHT22;11538;48.884;8.696;2023-02-05T03:09:56;3.90;99.90
22742;DHT22;11538;48.884;8.696;2023-02-05T03:12:27;3.80;99.90
22742;DHT22;11538;48.884;8.696;2023-02-05T03:14:54;3.80;99.90
22742;DHT22;11538;48.884;8.696;2023-02-05T03:17:21;3.80;99.90
22742;DHT22;11538;48.884;8.696;2023-02-05T03:20:14;3.80;99.90
22742;DHT22;11538;48.884;8.696;2023-02-05T03:22:42;3.80;99.90
22742;DHT22;11538;48.884;8.696;2023-02-05T03:25:09;3.70;99.90
22742;DHT22;11538;48.884;8.696;2023-02-05T03:27:37;3.70;99.90
22742;DHT22;11538;48.884;8.696;2023-02-05T03:30:04;3.70;99.90
22742;DHT22;11538;48.884;8.696;2023-02-05T03:37:45;3.70;99.90
22742;DHT22;11538;48.884;8.696;2023-02-05T03:40:21;3.70;99.90
22742;DHT22;11538;48.884;8.696;2023-02-05T03:43:15;3.60;99.90
22742;DHT22;11538;48.884;8.696;2023-02-05T03:45:58;3.60;99.90
22742;DHT22;11538;48.884;8.696;2023-02-05T03:51:43;3.50;1.00
22742;DHT22;11538;48.884;8.696;2023-02-05T03:54:21;3.50;99.90
22742;DHT22;11538;48.884;8.696;2023-02-05T03:57:00;3.50;99.90
22742;DHT22;11538;48.884;8.696;2023-02-05T03:59:30;3.50;99.90
22742;DHT22;11538;48.884;8.696;2023-02-05T04:01:59;3.50;99.90
22742;DHT22;11538;48.884;8.696;2023-02-05T04:04:28;3.60;99.90
22742;DHT22;11538;48.884;8.696;2023-02-05T04:06:55;3.60;99.90
22742;DHT22;11538;48.884;8.696;2023-02-05T04:09:22;3.60;99.90
22742;DHT22;11538;48.884;8.696;2023-02-05T04:11:48;3.60;99.90
22742;DHT22;11538;48.884;8.696;2023-02-05T04:14:15;3.60;99.90
22742;DHT22;11538;48.884;8.696;2023-02-05T04:16:42;3.60;99.90
22742;DHT22;11538;48.884;8.696;2023-02-05T04:19:09;3.60;99.90
22742;DHT22;11538;48.884;8.696;2023-02-05T04:21:36;3.60;99.90
22742;DHT22;11538;48.884;8.696;2023-02-05T04:24:02;3.60;99.90
22742;DHT22;11538;48.884;8.696;2023-02-05T04:26:29;3.60;99.90
22742;DHT22;11538;48.884;8.696;2023-02-05T04:28:57;3.60;99.90
22742;DHT22;11538;48.884;8.696;2023-02-05T04:31:24;3.60;99.90
22742;DHT22;11538;48.884;8.696;2023-02-05T04:33:51;3.70;99.90
22742;DHT22;11538;48.884;8.696;2023-02-05T04:36:17;3.70;99.90
22742;DHT22;11538;48.884;8.696;2023-02-05T04:38:44;3.70;99.90
22742;DHT22;11538;48.884;8.696;2023-02-05T04:41:11;3.70;99.90
22742;DHT22;11538;48.884;8.696;2023-02-05T04:43:38;3.70;99.90
22742;DHT22;11538;48.884;8.696;2023-02-05T04:46:05;3.70;99.90
22742;DHT22;11538;48.884;8.696;2023-02-05T04:48:34;3.70;99.90
22742;DHT22;11538;48.884;8.696;2023-02-05T04:51:08;3.70;99.90
22742;DHT22;11538;48.884;8.696;2023-02-05T04:53:36;3.70;99.90
22742;DHT22;11538;48.884;8.696;2023-02-05T04:58:34;3.70;99.90
22742;DHT22;11538;48.884;8.696;2023-02-05T05:01:01;3.70;99.90
22742;DHT22;11538;48.884;8.696;2023-02-05T05:03:28;3.70;99.90
22742;DHT22;11538;48.884;8.696;2023-02-05T05:05:55;3.60;99.90
22742;DHT22;11538;48.884;8.696;2023-02-05T05:08:22;3.70;99.90
22742;DHT22;11538;48.884;8.696;2023-02-05T05:10:49;3.70;99.90
22742;DHT22;11538;48.884;8.696;2023-02-05T05:13:15;3.70;99.90
22742;DHT22;11538;48.884;8.696;2023-02-05T05:15:42;3.70;99.90
22742;DHT22;11538;48.884;8.696;2023-02-05T05:18:10;3.70;99.90
22742;DHT22;11538;48.884;8.696;2023-02-05T05:20:37;3.70;99.90
22742;DHT22;11538;48.884;8.696;2023-02-05T05:23:03;3.70;99.90
22742;DHT22;11538;48.884;8.696;2023-02-05T05:25:30;3.70;99.90
22742;DHT22;11538;48.884;8.696;2023-02-05T05:27:58;3.70;99.90
22742;DHT22;11538;48.884;8.696;2023-02-05T05:30:25;3.70;99.90
22742;DHT22;11538;48.884;8.696;2023-02-05T05:32:51;3.70;99.90
22742;DHT22;11538;48.884;8.696;2023-02-05T05:35:18;3.70;99.90
22742;DHT22;11538;48.884;8.696;2023-02-05T05:37:45;3.70;99.90
22742;DHT22;11538;48.884;8.696;2023-02-05T05:40:12;3.70;99.90
22742;DHT22;11538;48.884;8.696;2023-02-05T05:42:57;3.70;99.90
22742;DHT22;11538;48.884;8.696;2023-02-05T05:45:42;3.70;99.90
22742;DHT22;11538;48.884;8.696;2023-02-05T05:48:09;3.80;99.90
22742;DHT22;11538;48.884;8.696;2023-02-05T05:50:36;3.80;1.00
22742;DHT22;11538;48.884;8.696;2023-02-05T05:53:03;3.70;99.90
22742;DHT22;11538;48.884;8.696;2023-02-05T05:55:30;3.80;99.90
22742;DHT22;11538;48.884;8.696;2023-02-05T05:57:57;3.80;99.90
22742;DHT22;11538;48.884;8.696;2023-02-05T06:00:24;3.80;99.90
22742;DHT22;11538;48.884;8.696;2023-02-05T06:02:51;3.80;99.90
22742;DHT22;11538;48.884;8.696;2023-02-05T06:05:18;3.80;99.90
22742;DHT22;11538;48.884;8.696;2023-02-05T06:07:44;3.80;99.90
22742;DHT22;11538;48.884;8.696;2023-02-05T06:10:11;3.90;99.90
22742;DHT22;11538;48.884;8.696;2023-02-05T06:12:38;3.90;99.90
22742;DHT22;11538;48.884;8.696;2023-02-05T06:15:05;3.90;99.90
22742;DHT22;11538;48.884;8.696;2023-02-05T06:17:32;3.90;99.90
22742;DHT22;11538;48.884;8.696;2023-02-05T06:19:59;3.90;99.90
22742;DHT22;11538;48.884;8.696;2023-02-05T06:22:25;3.90;99.90
22742;DHT22;11538;48.884;8.696;2023-02-05T06:24:52;3.90;99.90
22742;DHT22;11538;48.884;8.696;2023-02-05T06:27:19;3.90;99.90
22742;DHT22;11538;48.884;8.696;2023-02-05T06:29:46;3.90;99.90
22742;DHT22;11538;48.884;8.696;2023-02-05T06:32:12;3.90;99.90
22742;DHT22;11538;48.884;8.696;2023-02-05T06:34:39;3.90;99.90
22742;DHT22;11538;48.884;8.696;2023-02-05T06:37:06;3.90;99.90
22742;DHT22;11538;48.884;8.696;2023-02-05T06:39:33;3.90;99.90
22742;DHT22;11538;48.884;8.696;2023-02-05T06:41:59;3.90;99.90
22742;DHT22;11538;48.884;8.696;2023-02-05T06:44:26;3.90;99.90
22742;DHT22;11538;48.884;8.696;2023-02-05T06:46:53;3.90;99.90
22742;DHT22;11538;48.884;8.696;2023-02-05T06:49:19;3.90;99.90
22742;DHT22;11538;48.884;8.696;2023-02-05T06:51:47;3.90;99.90
22742;DHT22;11538;48.884;8.696;2023-02-05T06:54:13;4.00;99.90
22742;DHT22;11538;48.884;8.696;2023-02-05T06:56:40;4.00;99.90
22742;DHT22;11538;48.884;8.696;2023-02-05T06:59:07;4.00;99.90
22742;DHT22;11538;48.884;8.696;2023-02-05T07:01:34;4.00;99.90
22742;DHT22;11538;48.884;8.696;2023-02-05T07:04:01;4.00;99.90
22742;DHT22;11538;48.884;8.696;2023-02-05T07:06:27;4.00;99.90
22742;DHT22;11538;48.884;8.696;2023-02-05T07:08:54;3.90;99.90
22742;DHT22;11538;48.884;8.696;2023-02-05T07:11:21;3.90;99.90
22742;DHT22;11538;48.884;8.696;2023-02-05T07:13:49;3.90;99.90
22742;DHT22;11538;48.884;8.696;2023-02-05T07:16:16;3.90;99.90
22742;DHT22;11538;48.884;8.696;2023-02-05T07:18:43;3.90;99.90
22742;DHT22;11538;48.884;8.696;2023-02-05T07:21:11;3.90;99.90
22742;DHT22;11538;48.884;8.696;2023-02-05T07:23:41;3.90;99.90
22742;DHT22;11538;48.884;8.696;2023-02-05T07:26:09;4.00;99.90
22742;DHT22;11538;48.884;8.696;2023-02-05T07:28:37;4.00;99.90
22742;DHT22;11538;48.884;8.696;2023-02-05T07:31:05;4.00;99.90
22742;DHT22;11538;48.884;8.696;2023-02-05T07:33:34;4.00;99.90
22742;DHT22;11538;48.884;8.696;2023-02-05T07:36:04;3.90;99.90
22742;DHT22;11538;48.884;8.696;2023-02-05T07:38:33;3.90;99.90
22742;DHT22;11538;48.884;8.696;2023-02-05T07:41:06;4.00;99.90
22742;DHT22;11538;48.884;8.696;2023-02-05T07:43:36;3.90;99.90
22742;DHT22;11538;48.884;8.696;2023-02-05T07:46:04;4.00;99.90
22742;DHT22;11538;48.884;8.696;2023-02-05T07:48:33;4.00;99.90
22742;DHT22;11538;48.884;8.696;2023-02-05T07:51:01;4.00;99.90
22742;DHT22;11538;48.884;8.696;2023-02-05T07:53:29;4.00;99.90
22742;DHT22;11538;48.884;8.696;2023-02-05T07:55:55;4.00;99.90
22742;DHT22;11538;48.884;8.696;2023-02-05T07:58:22;4.10;99.90
22742;DHT22;11538;48.884;8.696;2023-02-05T08:00:49;4.10;99.90
22742;DHT22;11538;48.884;8.696;2023-02-05T08:03:16;4.20;99.90
22742;DHT22;11538;48.884;8.696;2023-02-05T08:05:43;4.20;99.90
22742;DHT22;11538;48.884;8.696;2023-02-05T08:08:10;4.20;99.90
22742;DHT22;11538;48.884;8.696;2023-02-05T08:10:37;4.20;99.90
22742;DHT22;11538;48.884;8.696;2023-02-05T08:13:04;4.20;99.90
22742;DHT22;11538;48.884;8.696;2023-02-05T08:15:31;4.10;99.90
22742;DHT22;11538;48.884;8.696;2023-02-05T08:17:58;4.10;99.90
22742;DHT22;11538;48.884;8.696;2023-02-05T08:20:25;4.10;99.90
22742;DHT22;11538;48.884;8.696;2023-02-05T08:22:52;4.10;99.90
22742;DHT22;11538;48.884;8.696;2023-02-05T08:25:19;4.10;99.90
22742;DHT22;11538;48.884;8.696;2023-02-05T08:27:46;4.10;99.90
22742;DHT22;11538;48.884;8.696;2023-02-05T08:30:15;4.10;99.90
22742;DHT22;11538;48.884;8.696;2023-02-05T08:32:46;4.10;99.90
22742;DHT22;11538;48.884;8.696;2023-02-05T08:35:15;4.20;99.90
22742;DHT22;11538;48.884;8.696;2023-02-05T08:37:42;4.20;99.90
22742;DHT22;11538;48.884;8.696;2023-02-05T08:40:09;4.20;99.90
22742;DHT22;11538;48.884;8.696;2023-02-05T08:42:36;4.30;99.90
22742;DHT22;11538;48.884;8.696;2023-02-05T08:45:03;4.30;99.90
22742;DHT22;11538;48.884;8.696;2023-02-05T08:47:36;4.40;99.90
22742;DHT22;11538;48.884;8.696;2023-02-05T08:50:03;4.40;99.90
22742;DHT22;11538;48.884;8.696;2023-02-05T08:52:31;4.50;99.90
22742;DHT22;11538;48.884;8.696;2023-02-05T08:54:58;4.60;99.90
22742;DHT22;11538;48.884;8.696;2023-02-05T08:57:26;4.60;99.90
22742;DHT22;11538;48.884;8.696;2023-02-05T08:59:54;4.60;99.90
22742;DHT22;11538;48.884;8.696;2023-02-05T09:02:21;4.60;99.90
22742;DHT22;11538;48.884;8.696;2023-02-05T09:04:53;4.60;1.00
22742;DHT22;11538;48.884;8.696;2023-02-05T09:07:33;4.60;99.90
22742;DHT22;11538;48.884;8.696;2023-02-05T09:10:00;4.60;99.90
22742;DHT22;11538;48.884;8.696;2023-02-05T09:12:26;4.60;99.90
22742;DHT22;11538;48.884;8.696;2023-02-05T09:14:53;4.60;99.90
22742;DHT22;11538;48.884;8.696;2023-02-05T09:17:20;4.70;99.90
22742;DHT22;11538;48.884;8.696;2023-02-05T09:19:47;4.70;99.90
22742;DHT22;11538;48.884;8.696;2023-02-05T09:22:14;4.80;99.90
22742;DHT22;11538;48.884;8.696;2023-02-05T09:24:40;4.80;99.90
22742;DHT22;11538;48.884;8.696;2023-02-05T09:27:07;4.90;99.90
22742;DHT22;11538;48.884;8.696;2023-02-05T09:29:34;4.90;99.90
22742;DHT22;11538;48.884;8.696;2023-02-05T09:32:01;5.00;99.90
22742;DHT22;11538;48.884;8.696;2023-02-05T09:34:28;5.00;99.90
22742;DHT22;11538;48.884;8.696;2023-02-05T09:36:54;5.10;99.90
22742;DHT22;11538;48.884;8.696;2023-02-05T09:39:21;5.10;99.90
22742;DHT22;11538;48.884;8.696;2023-02-05T09:42:13;5.20;99.90
22742;DHT22;11538;48.884;8.696;2023-02-05T09:44:56;5.10;99.90
22742;DHT22;11538;48.884;8.696;2023-02-05T09:47:39;5.20;99.90
22742;DHT22;11538;48.884;8.696;2023-02-05T09:52:43;5.20;99.90
22742;DHT22;11538;48.884;8.696;2023-02-05T09:55:19;5.30;99.90
22742;DHT22;11538;48.884;8.696;2023-02-05T09:57:51;5.40;99.90
22742;DHT22;11538;48.884;8.696;2023-02-05T10:00:29;5.40;99.90
22742;DHT22;11538;48.884;8.696;2023-02-05T10:03:25;5.50;99.90
22742;DHT22;11538;48.884;8.696;2023-02-05T10:06:11;5.50;99.90
22742;DHT22;11538;48.884;8.696;2023-02-05T10:08:59;5.60;99.90
22742;DHT22;11538;48.884;8.696;2023-02-05T10:14:47;5.70;99.90
22742;DHT22;11538;48.884;8.696;2023-02-05T10:20:29;5.90;99.90
22742;DHT22;11538;48.884;8.696;2023-02-05T10:23:16;5.90;99.90
22742;DHT22;11538;48.884;8.696;2023-02-05T10:26:00;6.00;99.90
22742;DHT22;11538;48.884;8.696;2023-02-05T10:31:42;6.10;99.90
22742;DHT22;11538;48.884;8.696;2023-02-05T10:34:31;6.10;99.90
22742;DHT22;11538;48.884;8.696;2023-02-05T10:37:02;6.20;99.90
22742;DHT22;11538;48.884;8.696;2023-02-05T10:39:35;6.20;99.90
22742;DHT22;11538;48.884;8.696;2023-02-05T10:42:19;6.30;99.90
22742;DHT22;11538;48.884;8.696;2023-02-05T10:44:58;6.30;99.90
22742;DHT22;11538;48.884;8.696;2023-02-05T10:47:38;6.30;99.90
22742;DHT22;11538;48.884;8.696;2023-02-05T10:50:26;6.40;99.90
22742;DHT22;11538;48.884;8.696;2023-02-05T10:53:00;6.40;99.90
22742;DHT22;11538;48.884;8.696;2023-02-05T10:55:30;6.50;99.90
22742;DHT22;11538;48.884;8.696;2023-02-05T10:57:59;6.50;99.90
22742;DHT22;11538;48.884;8.696;2023-02-05T11:00:33;6.50;99.90
22742;DHT22;11538;48.884;8.696;2023-02-05T11:03:00;6.50;99.90
22742;DHT22;11538;48.884;8.696;2023-02-05T11:05:35;6.60;99.90
22742;DHT22;11538;48.884;8.696;2023-02-05T11:08:04;6.60;99.90
22742;DHT22;11538;48.884;8.696;2023-02-05T11:11:05;6.60;99.90
22742;DHT22;11538;48.884;8.696;2023-02-05T11:13:35;6.60;99.90
22742;DHT22;11538;48.884;8.696;2023-02-05T11:16:07;6.60;99.90
22742;DHT22;11538;48.884;8.696;2023-02-05T11:18:36;6.60;99.90
22742;DHT22;11538;48.884;8.696;2023-02-05T11:21:06;6.60;99.90
22742;DHT22;11538;48.884;8.696;2023-02-05T11:23:36;6.70;99.90
22742;DHT22;11538;48.884;8.696;2023-02-05T11:26:14;6.70;99.90
22742;DHT22;11538;48.884;8.696;2023-02-05T11:28:48;6.70;99.90
22742;DHT22;11538;48.884;8.696;2023-02-05T11:33:51;6.70;99.90
22742;DHT22;11538;48.884;8.696;2023-02-05T11:36:46;6.70;99.90
22742;DHT22;11538;48.884;8.696;2023-02-05T11:39:55;6.70;99.90
22742;DHT22;11538;48.884;8.696;2023-02-05T11:42:22;6.60;99.90
22742;DHT22;11538;48.884;8.696;2023-02-05T11:44:52;6.60;99.90
22742;DHT22;11538;48.884;8.696;2023-02-05T11:47:32;6.60;99.90
22742;DHT22;11538;48.884;8.696;2023-02-05T11:50:02;6.60;99.90
22742;DHT22;11538;48.884;8.696;2023-02-05T11:52:35;6.60;99.90
22742;DHT22;11538;48.884;8.696;2023-02-05T11:55:03;6.50;99.90
22742;DHT22;11538;48.884;8.696;2023-02-05T11:57:32;6.50;99.90
22742;DHT22;11538;48.884;8.696;2023-02-05T12:02:38;6.40;99.90
22742;DHT22;11538;48.884;8.696;2023-02-05T12:07:41;6.40;99.90
22742;DHT22;11538;48.884;8.696;2023-02-05T12:10:43;6.40;99.90
22742;DHT22;11538;48.884;8.696;2023-02-05T12:21:44;6.40;99.90
22742;DHT22;11538;48.884;8.696;2023-02-05T12:35:59;6.30;99.90
22742;DHT22;11538;48.884;8.696;2023-02-05T12:39:11;6.30;99.90
22742;DHT22;11538;48.884;8.696;2023-02-05T12:44:50;6.20;99.90
22742;DHT22;11538;48.884;8.696;2023-02-05T12:53:14;6.20;99.90
22742;DHT22;11538;48.884;8.696;2023-02-05T12:56:21;6.20;99.90
22742;DHT22;11538;48.884;8.696;2023-02-05T12:59:05;6.20;99.90
22742;DHT22;11538;48.884;8.696;2023-02-05T13:04:21;6.10;99.90
22742;DHT22;11538;48.884;8.696;2023-02-05T13:06:53;6.10;99.90
22742;DHT22;11538;48.884;8.696;2023-02-05T13:09:29;6.10;99.90
22742;DHT22;11538;48.884;8.696;2023-02-05T13:12:05;6.10;99.90
22742;DHT22;11538;48.884;8.696;2023-02-05T13:14:39;6.10;99.90
22742;DHT22;11538;48.884;8.696;2023-02-05T13:17:14;6.10;99.90
22742;DHT22;11538;48.884;8.696;2023-02-05T13:19:50;6.10;99.90
22742;DHT22;11538;48.884;8.696;2023-02-05T13:22:39;6.00;99.90
22742;DHT22;11538;48.884;8.696;2023-02-05T13:25:41;6.00;99.90
22742;DHT22;11538;48.884;8.696;2023-02-05T13:28:36;6.00;99.90
22742;DHT22;11538;48.884;8.696;2023-02-05T13:33:37;5.90;99.90
22742;DHT22;11538;48.884;8.696;2023-02-05T14:00:40;5.70;99.90
22742;DHT22;11538;48.884;8.696;2023-02-05T14:03:15;5.70;99.90
22742;DHT22;11538;48.884;8.696;2023-02-05T14:05:51;5.60;99.90
22742;DHT22;11538;48.884;8.696;2023-02-05T14:08:20;5.60;99.90
22742;DHT22;11538;48.884;8.696;2023-02-05T14:11:02;5.60;99.90
22742;DHT22;11538;48.884;8.696;2023-02-05T14:13:33;5.60;99.90
22742;DHT22;11538;48.884;8.696;2023-02-05T14:29:57;5.50;99.90
22742;DHT22;11538;48.884;8.696;2023-02-05T14:33:45;5.50;99.90
22742;DHT22;11538;48.884;8.696;2023-02-05T14:39:03;5.50;99.90
22742;DHT22;11538;48.884;8.696;2023-02-05T14:41:54;5.50;99.90
22742;DHT22;11538;48.884;8.696;2023-02-05T14:44:32;5.50;99.90
22742;DHT22;11538;48.884;8.696;2023-02-05T14:47:18;5.50;99.90
22742;DHT22;11538;48.884;8.696;2023-02-05T14:50:01;5.40;99.90
22742;DHT22;11538;48.884;8.696;2023-02-05T14:52:38;5.40;99.90
22742;DHT22;11538;48.884;8.696;2023-02-05T14:55:18;5.40;99.90
22742;DHT22;11538;48.884;8.696;2023-02-05T14:57:59;5.40;99.90
22742;DHT22;11538;48.884;8.696;2023-02-05T15:00:34;5.30;99.90
22742;DHT22;11538;48.884;8.696;2023-02-05T15:03:16;5.30;99.90
22742;DHT22;11538;48.884;8.696;2023-02-05T15:05:50;5.30;99.90
22742;DHT22;11538;48.884;8.696;2023-02-05T15:11:08;5.30;99.90
22742;DHT22;11538;48.884;8.696;2023-02-05T15:13:41;5.30;99.90
22742;DHT22;11538;48.884;8.696;2023-02-05T15:18:39;5.30;99.90
22742;DHT22;11538;48.884;8.696;2023-02-05T15:26:49;5.30;99.90
22742;DHT22;11538;48.884;8.696;2023-02-05T15:29:24;5.30;99.90
22742;DHT22;11538;48.884;8.696;2023-02-05T15:32:12;5.20;99.90
22742;DHT22;11538;48.884;8.696;2023-02-05T15:34:48;5.30;99.90
22742;DHT22;11538;48.884;8.696;2023-02-05T15:37:21;5.30;99.90
22742;DHT22;11538;48.884;8.696;2023-02-05T15:40:01;5.30;99.90
22742;DHT22;11538;48.884;8.696;2023-02-05T15:42:38;5.20;99.90
22742;DHT22;11538;48.884;8.696;2023-02-05T15:45:23;5.30;99.90
22742;DHT22;11538;48.884;8.696;2023-02-05T15:48:01;5.30;99.90
22742;DHT22;11538;48.884;8.696;2023-02-05T15:50:34;5.20;99.90
22742;DHT22;11538;48.884;8.696;2023-02-05T15:53:08;5.30;99.90
22742;DHT22;11538;48.884;8.696;2023-02-05T15:55:55;5.30;99.90
22742;DHT22;11538;48.884;8.696;2023-02-05T15:58:23;5.30;99.90
22742;DHT22;11538;48.884;8.696;2023-02-05T16:00:52;5.30;99.90
22742;DHT22;11538;48.884;8.696;2023-02-05T16:03:32;5.30;99.90
22742;DHT22;11538;48.884;8.696;2023-02-05T16:06:01;5.30;99.90
22742;DHT22;11538;48.884;8.696;2023-02-05T16:08:28;5.30;99.90
22742;DHT22;11538;48.884;8.696;2023-02-05T16:10:56;5.30;99.90
22742;DHT22;11538;48.884;8.696;2023-02-05T16:13:24;5.40;99.90
22742;DHT22;11538;48.884;8.696;2023-02-05T16:15:57;5.40;99.90
22742;DHT22;11538;48.884;8.696;2023-02-05T16:21:11;5.40;99.90
22742;DHT22;11538;48.884;8.696;2023-02-05T16:23:43;5.40;99.90
22742;DHT22;11538;48.884;8.696;2023-02-05T16:26:15;5.40;99.90
22742;DHT22;11538;48.884;8.696;2023-02-05T16:29:05;5.40;99.90
22742;DHT22;11538;48.884;8.696;2023-02-05T16:31:55;5.40;99.90
22742;DHT22;11538;48.884;8.696;2023-02-05T16:34:24;5.40;99.90
22742;DHT22;11538;48.884;8.696;2023-02-05T16:36:51;5.40;99.90
22742;DHT22;11538;48.884;8.696;2023-02-05T16:42:01;5.40;99.90
22742;DHT22;11538;48.884;8.696;2023-02-05T16:44:43;5.40;99.90
22742;DHT22;11538;48.884;8.696;2023-02-05T16:47:17;5.30;99.90
22742;DHT22;11538;48.884;8.696;2023-02-05T16:49:45;5.40;99.90
22742;DHT22;11538;48.884;8.696;2023-02-05T16:52:48;5.30;99.90
22742;DHT22;11538;48.884;8.696;2023-02-05T16:55:53;5.30;99.90
22742;DHT22;11538;48.884;8.696;2023-02-05T16:58:01;5.30;99.90
22742;DHT22;11538;48.884;8.696;2023-02-05T17:00:30;5.30;99.90
22742;DHT22;11538;48.884;8.696;2023-02-05T17:03:05;5.30;99.90
22742;DHT22;11538;48.884;8.696;2023-02-05T17:05:41;5.40;99.90
22742;DHT22;11538;48.884;8.696;2023-02-05T17:08:10;5.40;99.90
22742;DHT22;11538;48.884;8.696;2023-02-05T17:10:52;5.30;99.90
22742;DHT22;11538;48.884;8.696;2023-02-05T17:19:21;5.40;99.90
22742;DHT22;11538;48.884;8.696;2023-02-05T17:24:42;5.40;99.90
22742;DHT22;11538;48.884;8.696;2023-02-05T17:27:13;5.40;99.90
22742;DHT22;11538;48.884;8.696;2023-02-05T17:29:42;5.40;99.90
22742;DHT22;11538;48.884;8.696;2023-02-05T17:32:14;5.40;99.90
22742;DHT22;11538;48.884;8.696;2023-02-05T17:34:42;5.40;99.90
22742;DHT22;11538;48.884;8.696;2023-02-05T17:37:10;5.40;99.90
22742;DHT22;11538;48.884;8.696;2023-02-05T17:39:37;5.40;99.90
22742;DHT22;11538;48.884;8.696;2023-02-05T17:42:04;5.40;99.90
22742;DHT22;11538;48.884;8.696;2023-02-05T17:44:35;5.50;99.90
22742;DHT22;11538;48.884;8.696;2023-02-05T17:47:03;5.50;99.90
22742;DHT22;11538;48.884;8.696;2023-02-05T17:49:32;5.50;99.90
22742;DHT22;11538;48.884;8.696;2023-02-05T17:52:01;5.50;99.90
22742;DHT22;11538;48.884;8.696;2023-02-05T17:54:31;5.50;99.90
22742;DHT22;11538;48.884;8.696;2023-02-05T17:57:00;5.50;99.90
22742;DHT22;11538;48.884;8.696;2023-02-05T17:59:36;5.50;99.90
22742;DHT22;11538;48.884;8.696;2023-02-05T18:02:03;5.50;99.90
22742;DHT22;11538;48.884;8.696;2023-02-05T18:04:31;5.60;99.90
22742;DHT22;11538;48.884;8.696;2023-02-05T18:06:58;5.60;99.90
22742;DHT22;11538;48.884;8.696;2023-02-05T18:09:25;5.60;99.90
22742;DHT22;11538;48.884;8.696;2023-02-05T18:11:52;5.60;99.90
22742;DHT22;11538;48.884;8.696;2023-02-05T18:14:19;5.60;99.90
22742;DHT22;11538;48.884;8.696;2023-02-05T18:16:47;5.60;99.90
22742;DHT22;11538;48.884;8.696;2023-02-05T18:19:14;5.60;99.90
22742;DHT22;11538;48.884;8.696;2023-02-05T18:21:41;5.60;99.90
22742;DHT22;11538;48.884;8.696;2023-02-05T18:24:07;5.70;99.90
22742;DHT22;11538;48.884;8.696;2023-02-05T18:26:35;5.70;99.90
22742;DHT22;11538;48.884;8.696;2023-02-05T18:29:05;5.70;99.90
22742;DHT22;11538;48.884;8.696;2023-02-05T18:31:32;5.70;99.90
22742;DHT22;11538;48.884;8.696;2023-02-05T18:34:00;5.70;99.90
22742;DHT22;11538;48.884;8.696;2023-02-05T18:36:27;5.70;99.90
22742;DHT22;11538;48.884;8.696;2023-02-05T18:38:54;5.70;99.90